Time;durP1;ratioP1;P1;durP2;ratioP2;P2;SDS_P1;SDS_P2;PMS_P1;PMS_P2;Temp;Humidity;BMP_temperature;BMP_pressure;BME280_temperature;BME280_humidity;BME280_pressure;Samples;Min_cycle;Max_cycle;Signal;HPM_P1;HPM_P2
2024/01/07 00:01:38;;;;;;;51.95;46.58;;;7.80;99.90;;;;;;5044771;28;20053;-64
2024/01/07 00:04:04;;;;;;;48.42;43.53;;;7.90;99.90;;;;;;5044921;28;20448;-62
2024/01/07 00:06:29;;;;;;;50.65;45.35;;;7.90;99.90;;;;;;5043615;28;20151;-63
2024/01/07 00:08:55;;;;;;;49.10;43.95;;;7.70;99.90;;;;;;5037012;28;20397;-63
2024/01/07 00:11:20;;;;;;;52.53;47.22;;;7.90;99.90;;;;;;5026531;28;20041;-63
2024/01/07 00:13:46;;;;;;;54.65;49.13;;;7.90;99.90;;;;;;5038979;28;20033;-62
2024/01/07 00:16:11;;;;;;;52.22;47.05;;;7.90;99.90;;;;;;5044764;28;20387;-62
2024/01/07 00:18:37;;;;;;;55.85;49.92;;;7.70;99.90;;;;;;5040841;28;20041;-63
2024/01/07 00:21:03;;;;;;;56.45;50.45;;;7.70;99.90;;;;;;5026741;28;20037;-63
2024/01/07 00:23:28;;;;;;;55.25;49.33;;;7.80;99.90;;;;;;5025033;28;20037;-64
2024/01/07 00:25:54;;;;;;;54.35;48.88;;;7.80;99.90;;;;;;5026279;28;20112;-63
2024/01/07 00:28:20;;;;;;;56.40;51.08;;;7.70;99.90;;;;;;5034207;28;20104;-62
2024/01/07 00:30:46;;;;;;;57.33;51.75;;;7.80;99.90;;;;;;5024931;28;20081;-63
2024/01/07 00:33:11;;;;;;;56.33;50.83;;;7.80;99.90;;;;;;5024895;28;20045;-63
2024/01/07 00:35:37;;;;;;;58.53;52.65;;;7.70;1.00;;;;;;5026082;28;20052;-63
2024/01/07 00:38:02;;;;;;;60.85;55.10;;;8.00;1.00;;;;;;5026446;28;20037;-64
2024/01/07 00:40:28;;;;;;;58.20;52.28;;;7.80;1.00;;;;;;5041734;28;20395;-63
2024/01/07 00:42:54;;;;;;;57.80;51.92;;;8.00;1.00;;;;;;5034320;28;20056;-63
2024/01/07 00:45:19;;;;;;;54.85;49.22;;;7.80;1.00;;;;;;5026210;28;20415;-63
2024/01/07 00:47:45;;;;;;;54.53;48.83;;;8.10;1.00;;;;;;5025012;28;20107;-63
2024/01/07 00:50:10;;;;;;;55.42;50.13;;;8.10;1.00;;;;;;5038826;28;20465;-63
2024/01/07 00:52:37;;;;;;;51.33;45.97;;;7.90;1.00;;;;;;5045156;28;20380;-63
2024/01/07 00:55:06;;;;;;;52.97;47.88;;;8.20;99.90;;;;;;5031538;28;20049;-62
2024/01/07 00:57:32;;;;;;;56.50;50.88;;;8.10;99.90;;;;;;5028709;28;20056;-62
2024/01/07 00:59:59;;;;;;;54.10;49.10;;;8.00;99.90;;;;;;5030436;28;20519;-63
2024/01/07 01:02:25;;;;;;;49.97;45.45;;;8.10;99.90;;;;;;5031778;28;20053;-63
2024/01/07 01:04:51;;;;;;;49.45;44.75;;;8.20;99.90;;;;;;5049476;28;20049;-64
2024/01/07 01:07:16;;;;;;;46.35;41.90;;;8.40;99.90;;;;;;5049921;28;20044;-64
2024/01/07 01:09:42;;;;;;;47.58;42.63;;;8.10;99.90;;;;;;5047313;28;20067;-64
2024/01/07 01:12:07;;;;;;;47.15;42.22;;;8.20;99.90;;;;;;5042723;28;20467;-63
2024/01/07 01:14:33;;;;;;;47.53;42.88;;;8.20;99.90;;;;;;5038719;28;20525;-64
2024/01/07 01:16:58;;;;;;;46.45;41.88;;;8.10;99.90;;;;;;5040953;28;20124;-64
2024/01/07 01:19:24;;;;;;;50.08;44.97;;;8.00;99.90;;;;;;5028928;28;20041;-64
2024/01/07 01:21:50;;;;;;;49.60;44.65;;;8.20;99.90;;;;;;5029660;28;20602;-64
2024/01/07 01:24:15;;;;;;;47.97;42.88;;;8.00;99.90;;;;;;5030546;28;20117;-63
2024/01/07 01:26:41;;;;;;;46.40;42.03;;;8.00;99.90;;;;;;5029506;28;20124;-63
2024/01/07 01:29:07;;;;;;;43.40;39.33;;;8.10;99.90;;;;;;5029535;28;20050;-63
2024/01/07 01:31:32;;;;;;;45.53;41.00;;;7.90;99.90;;;;;;5031202;28;20051;-63
2024/01/07 01:33:58;;;;;;;47.65;42.97;;;7.90;99.90;;;;;;5044545;28;20041;-63
2024/01/07 01:36:24;;;;;;;46.42;41.63;;;8.10;99.90;;;;;;5046709;28;20088;-63
2024/01/07 01:38:49;;;;;;;46.13;41.55;;;7.80;99.90;;;;;;5021997;28;20567;-63
2024/01/07 01:41:16;;;;;;;44.35;39.85;;;8.00;99.90;;;;;;5029357;28;20426;-63
2024/01/07 01:43:41;;;;;;;45.80;41.08;;;8.00;99.90;;;;;;5044564;28;20120;-63
2024/01/07 01:46:08;;;;;;;48.42;43.63;;;7.70;99.90;;;;;;5027802;28;20045;-63
2024/01/07 01:48:35;;;;;;;45.72;41.13;;;7.90;99.90;;;;;;5029172;28;20464;-63
2024/01/07 01:51:02;;;;;;;46.75;41.85;;;8.00;99.90;;;;;;5028198;28;20459;-63
2024/01/07 01:53:28;;;;;;;50.92;42.72;;;7.80;99.90;;;;;;5044667;28;20048;-64
2024/01/07 01:55:56;;;;;;;46.72;41.70;;;7.80;99.90;;;;;;5047528;28;20041;-64
2024/01/07 01:58:23;;;;;;;44.88;40.00;;;7.80;99.90;;;;;;5048389;28;20070;-63
2024/01/07 02:00:50;;;;;;;48.80;43.13;;;8.80;99.90;;;;;;5048333;28;20065;-63
2024/01/07 02:03:16;;;;;;;46.47;41.70;;;7.80;99.90;;;;;;5034124;28;20401;-63
2024/01/07 02:05:42;;;;;;;44.10;39.63;;;7.80;99.90;;;;;;5030496;28;20069;-63
2024/01/07 02:08:09;;;;;;;44.72;39.90;;;7.80;99.90;;;;;;5030768;28;20045;-63
2024/01/07 02:10:36;;;;;;;45.10;39.05;;;7.80;99.90;;;;;;5049050;28;20509;-64
2024/01/07 02:13:05;;;;;;;44.42;39.90;;;8.00;99.90;;;;;;5032916;28;20041;-63
2024/01/07 02:15:31;;;;;;;46.65;41.65;;;7.80;99.90;;;;;;5043704;28;20051;-62
2024/01/07 02:17:56;;;;;;;44.83;40.25;;;7.90;99.90;;;;;;5045494;28;20041;-63
2024/01/07 02:20:23;;;;;;;51.25;43.40;;;7.80;99.90;;;;;;5038429;28;20552;-63
2024/01/07 02:22:48;;;;;;;48.25;43.30;;;7.70;99.90;;;;;;5044831;28;20154;-63
2024/01/07 02:25:14;;;;;;;42.05;37.65;;;7.80;99.90;;;;;;5046769;28;20091;-63
2024/01/07 02:27:39;;;;;;;47.45;42.60;;;7.70;99.90;;;;;;5038461;28;20045;-63
2024/01/07 02:30:06;;;;;;;42.53;37.92;;;7.80;99.90;;;;;;5042175;28;20132;-63
2024/01/07 02:32:34;;;;;;;45.38;40.95;;;7.90;99.90;;;;;;5035723;28;20495;-63
2024/01/07 02:35:00;;;;;;;44.22;39.65;;;7.80;99.90;;;;;;5047978;28;20064;-62
2024/01/07 02:37:26;;;;;;;43.38;39.33;;;7.80;99.90;;;;;;5038111;28;20056;-62
2024/01/07 02:39:51;;;;;;;45.60;41.35;;;7.80;99.90;;;;;;5041849;28;20049;-63
2024/01/07 02:42:17;;;;;;;42.25;38.10;;;7.70;99.90;;;;;;5042607;28;20411;-64
2024/01/07 02:44:43;;;;;;;42.42;38.10;;;7.80;99.90;;;;;;5028286;28;20098;-63
2024/01/07 02:47:08;;;;;;;41.92;37.85;;;7.70;99.90;;;;;;5027969;28;20053;-63
2024/01/07 02:49:34;;;;;;;42.55;38.17;;;7.70;99.90;;;;;;5026168;28;20064;-63
2024/01/07 02:51:59;;;;;;;38.88;35.17;;;7.50;99.90;;;;;;5028660;28;20041;-64
2024/01/07 02:54:25;;;;;;;38.10;34.40;;;7.50;99.90;;;;;;5036134;28;20609;-62
2024/01/07 02:56:51;;;;;;;38.65;35.03;;;7.60;99.90;;;;;;5027770;28;20423;-62
2024/01/07 02:59:16;;;;;;;38.58;34.88;;;7.70;99.90;;;;;;5030580;28;20049;-63
2024/01/07 03:01:42;;;;;;;38.13;34.45;;;7.60;99.90;;;;;;5025764;28;20143;-63
2024/01/07 03:04:12;;;;;;;37.38;33.72;;;7.60;99.90;;;;;;5044652;28;20059;-64
2024/01/07 03:06:38;;;;;;;42.20;38.30;;;7.60;99.90;;;;;;5046236;28;20071;-63
2024/01/07 03:09:04;;;;;;;50.50;45.92;;;7.60;99.90;;;;;;5045785;28;20427;-63
2024/01/07 03:11:29;;;;;;;47.67;43.25;;;7.70;99.90;;;;;;5047417;28;20044;-63
2024/01/07 03:13:56;;;;;;;40.20;36.40;;;7.70;99.90;;;;;;5030240;28;20077;-62
2024/01/07 03:16:23;;;;;;;42.63;38.47;;;7.70;99.90;;;;;;5028013;28;20495;-62
2024/01/07 03:18:48;;;;;;;42.58;38.38;;;7.50;99.90;;;;;;5027841;28;20753;-63
2024/01/07 03:21:22;;;;;;;57.17;51.55;;;7.70;99.90;;;;;;5027466;28;20516;-62
2024/01/07 03:23:49;;;;;;;44.75;40.35;;;7.70;99.90;;;;;;5040504;28;20043;-64
2024/01/07 03:26:15;;;;;;;44.08;39.90;;;7.60;99.90;;;;;;5047294;28;20048;-63
2024/01/07 03:28:41;;;;;;;41.78;37.58;;;8.50;99.90;;;;;;5034296;28;20048;-62
2024/01/07 03:31:12;;;;;;;40.83;36.80;;;7.60;99.90;;;;;;5009071;28;20041;-63
2024/01/07 03:33:39;;;;;;;49.35;44.50;;;7.50;99.90;;;;;;5025407;28;20593;-63
2024/01/07 03:36:12;;;;;;;41.97;37.72;;;7.60;99.90;;;;;;5027137;28;20041;-63
2024/01/07 03:38:39;;;;;;;40.28;36.58;;;7.50;99.90;;;;;;5029453;28;20578;-63
2024/01/07 03:41:04;;;;;;;38.65;34.80;;;7.50;99.90;;;;;;5025521;28;20053;-64
2024/01/07 03:43:30;;;;;;;43.00;35.83;;;7.40;99.90;;;;;;5035401;28;20033;-63
2024/01/07 03:45:56;;;;;;;34.25;30.67;;;7.60;99.90;;;;;;5028252;28;20037;-63
2024/01/07 03:48:21;;;;;;;37.20;31.60;;;7.50;99.90;;;;;;5046694;28;20041;-63
2024/01/07 03:50:47;;;;;;;34.53;31.23;;;7.50;99.90;;;;;;5047061;28;20071;-63
2024/01/07 03:53:13;;;;;;;40.95;37.15;;;7.60;99.90;;;;;;5037268;28;20735;-63
2024/01/07 03:55:39;;;;;;;40.28;36.50;;;7.70;99.90;;;;;;5026452;28;20561;-63
2024/01/07 03:58:05;;;;;;;43.10;39.30;;;7.70;99.90;;;;;;5028726;28;20334;-63
2024/01/07 04:00:31;;;;;;;38.83;35.10;;;7.80;99.90;;;;;;5046096;28;20498;-63
2024/01/07 04:02:57;;;;;;;36.75;33.45;;;7.80;99.90;;;;;;5043106;28;20072;-63
2024/01/07 04:05:22;;;;;;;36.75;33.30;;;7.90;99.90;;;;;;5026253;28;20045;-64
2024/01/07 04:07:48;;;;;;;40.08;36.33;;;7.90;99.90;;;;;;5041133;28;20126;-63
2024/01/07 04:10:17;;;;;;;31.30;28.30;;;8.00;99.90;;;;;;5046013;28;20438;-63
2024/01/07 04:12:42;;;;;;;36.25;33.08;;;7.80;99.90;;;;;;5045195;28;20037;-63
2024/01/07 04:15:09;;;;;;;33.80;30.70;;;8.00;99.90;;;;;;5025156;28;20388;-63
2024/01/07 04:17:34;;;;;;;35.53;32.53;;;7.90;99.90;;;;;;5034328;28;20052;-62
2024/01/07 04:20:00;;;;;;;32.97;30.38;;;8.00;99.90;;;;;;5045972;28;20487;-63
2024/01/07 04:22:25;;;;;;;31.38;28.55;;;7.90;99.90;;;;;;5043612;28;20055;-63
2024/01/07 04:24:51;;;;;;;32.83;29.75;;;8.10;99.90;;;;;;5028146;28;20073;-64
2024/01/07 04:27:16;;;;;;;39.33;35.92;;;8.10;99.90;;;;;;5038112;28;20066;-63
2024/01/07 04:29:42;;;;;;;34.60;31.33;;;8.10;99.90;;;;;;5045741;28;20041;-63
2024/01/07 04:32:07;;;;;;;31.77;28.75;;;8.00;99.90;;;;;;5039495;28;20489;-63
2024/01/07 04:34:33;;;;;;;31.83;29.02;;;8.10;99.90;;;;;;5031241;28;20033;-64
2024/01/07 04:36:58;;;;;;;28.73;25.77;;;8.00;99.90;;;;;;5046101;28;20044;-63
2024/01/07 04:39:24;;;;;;;33.38;30.35;;;8.00;99.90;;;;;;5044893;28;20501;-63
2024/01/07 04:41:49;;;;;;;29.60;26.77;;;8.00;99.90;;;;;;5044296;28;20045;-64
2024/01/07 04:44:15;;;;;;;28.38;25.77;;;8.20;99.90;;;;;;5032790;28;20128;-64
2024/01/07 04:46:41;;;;;;;34.35;31.25;;;8.10;99.90;;;;;;5026306;28;20033;-64
2024/01/07 04:49:06;;;;;;;34.10;30.40;;;8.00;99.90;;;;;;5044225;28;20041;-63
2024/01/07 04:51:33;;;;;;;29.23;26.40;;;7.90;99.60;;;;;;5045738;28;20040;-64
2024/01/07 04:53:59;;;;;;;30.63;28.13;;;8.10;97.70;;;;;;5037573;28;20045;-64
2024/01/07 04:56:24;;;;;;;30.35;27.88;;;8.00;96.10;;;;;;5026622;28;20033;-63
2024/01/07 04:58:50;;;;;;;29.38;26.88;;;7.90;95.00;;;;;;5025080;28;20057;-63
2024/01/07 05:01:19;;;;;;;29.98;27.05;;;8.20;92.40;;;;;;5025992;28;20049;-64
2024/01/07 05:03:44;;;;;;;30.50;28.02;;;8.10;91.80;;;;;;5036312;28;20115;-63
2024/01/07 05:06:10;;;;;;;29.10;26.83;;;8.00;91.00;;;;;;5024691;28;20041;-62
2024/01/07 05:08:37;;;;;;;29.50;27.15;;;8.00;90.80;;;;;;5026061;28;20045;-62
2024/01/07 05:11:03;;;;;;;31.15;28.58;;;7.90;90.10;;;;;;5026623;28;20503;-63
2024/01/07 05:13:30;;;;;;;31.23;28.38;;;8.00;87.20;;;;;;5025911;28;20325;-63
2024/01/07 05:15:56;;;;;;;27.35;24.95;;;8.00;83.70;;;;;;5024559;28;20060;-64
2024/01/07 05:18:22;;;;;;;29.70;26.73;;;8.00;78.50;;;;;;5041495;28;20056;-63
2024/01/07 05:20:48;;;;;;;29.15;26.38;;;8.00;74.90;;;;;;5045987;28;20477;-63
2024/01/07 05:23:14;;;;;;;29.77;27.10;;;8.00;72.30;;;;;;5028789;28;20049;-64
2024/01/07 05:25:42;;;;;;;28.77;26.20;;;7.90;71.10;;;;;;5025714;28;20048;-64
2024/01/07 05:28:07;;;;;;;28.42;25.95;;;8.00;70.40;;;;;;5025767;28;20045;-63
2024/01/07 05:30:33;;;;;;;30.30;27.40;;;7.90;69.30;;;;;;5040576;28;20048;-63
2024/01/07 05:32:58;;;;;;;28.52;25.83;;;7.90;68.10;;;;;;5044229;28;20094;-63
2024/01/07 05:35:24;;;;;;;28.05;25.65;;;8.00;66.40;;;;;;5045556;28;20068;-63
2024/01/07 05:37:49;;;;;;;28.63;26.13;;;7.90;64.20;;;;;;5049233;28;20068;-63
2024/01/07 05:40:15;;;;;;;28.83;26.20;;;8.00;59.90;;;;;;5047677;28;20052;-63
2024/01/07 05:42:41;;;;;;;27.52;25.30;;;7.90;58.50;;;;;;5046937;28;20438;-63
2024/01/07 05:45:07;;;;;;;27.23;24.77;;;7.90;54.00;;;;;;5049174;28;20510;-63
2024/01/07 05:47:32;;;;;;;28.23;25.73;;;7.90;50.70;;;;;;5040954;28;20354;-64
2024/01/07 05:49:58;;;;;;;25.60;23.60;;;8.00;47.00;;;;;;5047474;28;20478;-64
2024/01/07 05:52:24;;;;;;;27.33;24.92;;;7.80;41.90;;;;;;5047357;28;20116;-63
2024/01/07 05:54:49;;;;;;;28.70;26.10;;;7.90;42.70;;;;;;5049016;28;20406;-63
2024/01/07 05:57:15;;;;;;;27.77;25.42;;;7.90;41.10;;;;;;5046626;28;20060;-63
2024/01/07 05:59:40;;;;;;;26.48;24.58;;;8.00;40.20;;;;;;5048666;28;20550;-62
2024/01/07 06:02:06;;;;;;;26.08;23.90;;;8.00;38.30;;;;;;5045192;28;20064;-62
2024/01/07 06:04:32;;;;;;;26.23;24.13;;;8.00;34.90;;;;;;5048794;28;20499;-63
2024/01/07 06:06:58;;;;;;;27.30;24.35;;;7.90;31.30;;;;;;5047551;28;20501;-64
2024/01/07 06:09:24;;;;;;;25.58;23.48;;;7.90;31.60;;;;;;5045338;28;20557;-63
2024/01/07 06:11:50;;;;;;;24.50;22.33;;;7.90;28.70;;;;;;5037637;28;20045;-64
2024/01/07 06:14:15;;;;;;;22.92;21.13;;;8.00;26.80;;;;;;5046220;28;20041;-63
2024/01/07 06:16:42;;;;;;;24.33;22.33;;;8.00;25.70;;;;;;5046739;28;20049;-64
2024/01/07 06:19:08;;;;;;;25.08;22.90;;;8.00;24.70;;;;;;5047214;28;20099;-63
2024/01/07 06:21:33;;;;;;;25.10;22.80;;;8.00;22.00;;;;;;5045704;28;20576;-63
2024/01/07 06:23:59;;;;;;;25.65;23.35;;;8.00;22.00;;;;;;5047065;28;20052;-63
2024/01/07 06:26:24;;;;;;;24.77;22.67;;;8.00;21.40;;;;;;5043853;28;20041;-63
2024/01/07 06:28:50;;;;;;;24.48;22.50;;;8.00;20.00;;;;;;5041418;28;20072;-63
2024/01/07 06:31:15;;;;;;;24.77;22.48;;;8.10;17.70;;;;;;5043714;28;20049;-63
2024/01/07 06:33:41;;;;;;;25.50;23.27;;;8.00;15.80;;;;;;5030647;28;20494;-63
2024/01/07 06:36:07;;;;;;;25.15;23.13;;;8.00;14.80;;;;;;5048177;28;20037;-63
2024/01/07 06:38:33;;;;;;;24.13;22.13;;;8.10;13.20;;;;;;5047947;28;20076;-64
2024/01/07 06:41:01;;;;;;;26.60;24.40;;;8.00;12.40;;;;;;5048398;28;20041;-63
2024/01/07 06:43:30;;;;;;;25.10;23.10;;;8.00;9.80;;;;;;5047396;28;20036;-64
2024/01/07 06:45:56;;;;;;;26.63;24.27;;;8.00;8.80;;;;;;5048298;28;20051;-62
2024/01/07 06:48:21;;;;;;;23.98;21.98;;;8.10;12.50;;;;;;5029305;28;20041;-63
2024/01/07 06:50:47;;;;;;;23.58;21.40;;;8.00;7.60;;;;;;5031249;28;20052;-62
2024/01/07 06:53:12;;;;;;;24.65;22.55;;;8.00;3.00;;;;;;5045212;28;20048;-62
2024/01/07 06:55:38;;;;;;;22.63;20.83;;;7.90;1.00;;;;;;5044693;28;20053;-63
2024/01/07 06:58:03;;;;;;;22.60;20.80;;;7.90;1.00;;;;;;5045495;28;20041;-63
2024/01/07 07:00:29;;;;;;;22.42;20.73;;;7.90;1.00;;;;;;5047683;28;20233;-63
2024/01/07 07:02:54;;;;;;;22.25;20.55;;;7.90;1.00;;;;;;5043624;28;20582;-64
2024/01/07 07:05:20;;;;;;;22.33;20.27;;;7.90;1.00;;;;;;5029312;28;20077;-63
2024/01/07 07:07:46;;;;;;;21.05;19.23;;;7.90;1.00;;;;;;5038578;28;20049;-63
2024/01/07 07:10:11;;;;;;;20.73;19.02;;;8.00;1.00;;;;;;5034606;28;20048;-63
2024/01/07 07:12:38;;;;;;;23.08;21.02;;;8.00;1.00;;;;;;5035480;28;20050;-63
2024/01/07 07:15:04;;;;;;;22.85;20.90;;;8.10;1.00;;;;;;5042418;28;20041;-63
2024/01/07 07:17:29;;;;;;;21.20;19.60;;;8.00;1.00;;;;;;5031487;28;20056;-62
2024/01/07 07:19:55;;;;;;;22.38;20.58;;;8.10;1.00;;;;;;5026549;28;20053;-64
2024/01/07 07:22:20;;;;;;;23.80;21.83;;;8.00;1.00;;;;;;5035049;28;20570;-62
2024/01/07 07:24:46;;;;;;;21.08;19.48;;;8.10;1.00;;;;;;5046034;28;20037;-64
2024/01/07 07:27:11;;;;;;;21.17;19.25;;;8.00;1.00;;;;;;5045656;28;20063;-63
2024/01/07 07:29:37;;;;;;;21.10;19.55;;;8.00;1.00;;;;;;5042263;28;20057;-65
2024/01/07 07:32:03;;;;;;;21.17;19.48;;;8.10;1.00;;;;;;5044583;28;20095;-63
2024/01/07 07:34:28;;;;;;;23.05;21.25;;;8.10;1.00;;;;;;5037629;28;20045;-63
2024/01/07 07:36:55;;;;;;;20.08;18.60;;;8.00;1.00;;;;;;5036879;28;20044;-64
2024/01/07 07:39:21;;;;;;;22.33;20.50;;;8.00;1.00;;;;;;5033516;28;20052;-64
2024/01/07 07:41:48;;;;;;;22.30;20.60;;;8.00;1.00;;;;;;5032229;28;20521;-63
2024/01/07 07:44:13;;;;;;;21.80;19.90;;;8.00;1.00;;;;;;5037932;28;20142;-64
2024/01/07 07:46:39;;;;;;;22.75;20.80;;;8.00;1.00;;;;;;5016416;28;20076;-63
2024/01/07 07:49:05;;;;;;;21.45;19.38;;;8.00;1.00;;;;;;5036445;28;20128;-63
2024/01/07 07:51:30;;;;;;;21.05;19.45;;;7.80;1.00;;;;;;5036154;28;20037;-63
2024/01/07 07:53:57;;;;;;;20.88;19.25;;;7.90;1.00;;;;;;5038104;28;20508;-63
2024/01/07 07:56:22;;;;;;;21.67;19.88;;;7.80;1.00;;;;;;5036790;28;20037;-63
2024/01/07 07:58:48;;;;;;;22.35;20.40;;;7.90;1.00;;;;;;5034398;28;20052;-63
2024/01/07 08:01:14;;;;;;;21.92;20.13;;;7.80;1.00;;;;;;5020462;28;20789;-63
2024/01/07 08:03:39;;;;;;;21.40;19.70;;;7.80;1.00;;;;;;5039987;28;20075;-63
2024/01/07 08:06:05;;;;;;;21.13;19.42;;;7.70;1.00;;;;;;5041369;28;20040;-66
2024/01/07 08:08:31;;;;;;;22.23;20.45;;;7.70;1.00;;;;;;5039599;28;20400;-63
2024/01/07 08:10:56;;;;;;;21.48;19.77;;;7.80;1.00;;;;;;5027788;28;20045;-64
2024/01/07 08:13:22;;;;;;;23.50;21.30;;;7.80;1.00;;;;;;5044523;28;20071;-63
2024/01/07 08:15:47;;;;;;;23.65;21.65;;;7.80;1.00;;;;;;5044280;28;20070;-63
2024/01/07 08:18:13;;;;;;;24.02;21.90;;;7.80;1.00;;;;;;5046515;28;20033;-64
2024/01/07 08:20:39;;;;;;;23.00;21.15;;;7.80;1.00;;;;;;5033845;28;20052;-64
2024/01/07 08:23:04;;;;;;;22.85;20.85;;;7.70;1.00;;;;;;5044664;28;20522;-63
2024/01/07 08:25:30;;;;;;;23.52;21.83;;;7.70;1.00;;;;;;5046203;28;20037;-64
2024/01/07 08:27:55;;;;;;;24.40;22.27;;;7.70;1.00;;;;;;5044038;28;20029;-63
2024/01/07 08:30:21;;;;;;;22.35;20.60;;;7.60;1.00;;;;;;5039292;28;20632;-64
2024/01/07 08:32:47;;;;;;;22.55;20.55;;;7.60;1.00;;;;;;5022845;28;20125;-63
2024/01/07 08:35:12;;;;;;;20.80;19.20;;;7.50;1.00;;;;;;5046075;28;20062;-63
2024/01/07 08:37:38;;;;;;;23.23;21.33;;;7.50;1.00;;;;;;5042079;28;20040;-63
2024/01/07 08:40:04;;;;;;;24.10;22.10;;;7.50;1.00;;;;;;5042200;28;20053;-63
2024/01/07 08:42:30;;;;;;;23.80;21.75;;;7.50;1.00;;;;;;5043794;28;20045;-63
2024/01/07 08:44:56;;;;;;;23.23;20.90;;;7.50;1.00;;;;;;5044245;28;20098;-63
2024/01/07 08:47:22;;;;;;;23.95;21.95;;;7.50;1.00;;;;;;5028509;28;20045;-63
2024/01/07 08:49:47;;;;;;;24.90;22.70;;;7.50;1.00;;;;;;5041486;28;20053;-64
2024/01/07 08:52:13;;;;;;;25.10;22.80;;;7.50;1.00;;;;;;5034084;28;20394;-63
2024/01/07 08:54:38;;;;;;;23.67;21.73;;;7.50;1.00;;;;;;5017442;28;20041;-64
2024/01/07 08:57:04;;;;;;;24.77;22.45;;;7.50;1.00;;;;;;5044384;28;20047;-64
2024/01/07 08:59:30;;;;;;;26.17;23.90;;;7.50;1.00;;;;;;5042673;28;20040;-65
2024/01/07 09:01:55;;;;;;;25.33;23.23;;;7.60;1.00;;;;;;5041507;28;20088;-64
2024/01/07 09:04:21;;;;;;;24.08;22.13;;;7.60;1.00;;;;;;5024627;28;20059;-65
2024/01/07 09:06:47;;;;;;;24.80;22.70;;;7.60;1.00;;;;;;5042840;28;20076;-65
2024/01/07 09:09:12;;;;;;;24.27;22.27;;;7.60;1.00;;;;;;5043233;28;20521;-64
2024/01/07 09:11:38;;;;;;;24.55;22.20;;;7.70;1.00;;;;;;5045401;28;20033;-64
2024/01/07 09:14:04;;;;;;;22.75;20.95;;;7.70;1.00;;;;;;5046998;28;20037;-65
2024/01/07 09:16:30;;;;;;;21.52;19.63;;;7.80;1.00;;;;;;5046365;28;20085;-65
2024/01/07 09:18:55;;;;;;;23.90;21.60;;;7.80;1.00;;;;;;5031314;28;20048;-65
2024/01/07 09:21:23;;;;;;;20.48;18.20;;;7.80;1.00;;;;;;5030725;28;20491;-64
2024/01/07 09:23:48;;;;;;;23.08;21.27;;;7.80;1.00;;;;;;5015109;28;20025;-66
2024/01/07 09:26:14;;;;;;;22.60;20.67;;;7.80;1.00;;;;;;5034670;28;20071;-64
2024/01/07 09:28:40;;;;;;;20.92;19.23;;;7.80;1.00;;;;;;5031713;28;20044;-67
2024/01/07 09:31:07;;;;;;;22.98;20.98;;;7.80;1.00;;;;;;5032808;28;20124;-65
2024/01/07 09:33:32;;;;;;;22.52;20.63;;;7.90;1.00;;;;;;5037824;28;20037;-64
2024/01/07 09:35:58;;;;;;;20.83;19.23;;;7.90;1.00;;;;;;5038816;28;20494;-63
2024/01/07 09:38:25;;;;;;;18.85;17.45;;;7.90;1.00;;;;;;5032364;28;20509;-64
2024/01/07 09:40:51;;;;;;;20.27;18.52;;;7.90;1.00;;;;;;5034194;28;20041;-65
2024/01/07 09:43:17;;;;;;;20.33;18.73;;;7.90;1.00;;;;;;5042196;28;20029;-64
2024/01/07 09:45:47;;;;;;;21.55;19.90;;;7.90;1.00;;;;;;5040044;28;20044;-64
2024/01/07 09:48:13;;;;;;;19.75;18.15;;;7.90;1.00;;;;;;5036364;28;20036;-64
2024/01/07 09:50:39;;;;;;;21.48;19.63;;;7.90;1.00;;;;;;5040222;28;20049;-66
2024/01/07 09:53:07;;;;;;;20.65;19.05;;;7.90;1.00;;;;;;5040487;28;20203;-63
2024/01/07 09:56:10;;;;;;;21.50;19.05;;;8.00;1.00;;;;;;5034953;28;20132;-63
2024/01/07 09:58:35;;;;;;;19.52;18.05;;;7.90;1.00;;;;;;5040417;28;20056;-64
2024/01/07 10:01:01;;;;;;;20.65;18.95;;;7.90;1.00;;;;;;5032482;28;20061;-64
2024/01/07 10:03:27;;;;;;;19.42;17.98;;;7.90;1.00;;;;;;5016844;28;20135;-64
2024/01/07 10:05:53;;;;;;;20.77;19.10;;;7.90;1.00;;;;;;5031102;28;20417;-65
2024/01/07 10:08:19;;;;;;;19.63;18.02;;;7.90;1.00;;;;;;5039692;28;20064;-66
2024/01/07 10:10:44;;;;;;;21.27;19.10;;;7.90;1.00;;;;;;5041106;28;20394;-63
2024/01/07 10:13:10;;;;;;;21.92;20.23;;;8.00;1.00;;;;;;5021329;28;20037;-65
2024/01/07 10:15:35;;;;;;;20.05;18.55;;;7.90;1.00;;;;;;5040366;28;20183;-64
2024/01/07 10:18:05;;;;;;;18.08;16.77;;;8.00;1.00;;;;;;5042064;28;20120;-64
2024/01/07 10:20:33;;;;;;;18.75;17.05;;;7.90;1.00;;;;;;5037215;28;20381;-63
2024/01/07 10:22:58;;;;;;;18.98;17.60;;;7.90;1.00;;;;;;5033102;28;20573;-64
2024/01/07 10:25:24;;;;;;;20.40;18.73;;;7.90;1.00;;;;;;5041082;28;20048;-64
2024/01/07 10:27:50;;;;;;;19.42;17.88;;;7.90;1.00;;;;;;5035332;28;20041;-64
2024/01/07 10:30:18;;;;;;;18.17;16.70;;;8.00;1.00;;;;;;5037635;28;20048;-64
2024/01/07 10:32:44;;;;;;;17.05;15.82;;;8.10;1.00;;;;;;5032968;28;20048;-66
2024/01/07 10:35:16;;;;;;;17.13;15.90;;;8.00;1.00;;;;;;5034999;28;20832;-63
2024/01/07 10:37:42;;;;;;;18.70;17.30;;;8.00;1.00;;;;;;5034927;28;20144;-63
2024/01/07 10:40:11;;;;;;;16.42;15.23;;;8.00;1.00;;;;;;5040502;28;20081;-65
2024/01/07 10:42:39;;;;;;;17.52;15.90;;;8.10;1.00;;;;;;5042218;28;20384;-64
2024/01/07 10:45:05;;;;;;;16.88;15.68;;;8.00;1.00;;;;;;5037100;28;20045;-64
2024/01/07 10:47:36;;;;;;;16.52;15.13;;;8.10;1.00;;;;;;5038745;28;20041;-66
2024/01/07 10:50:03;;;;;;;17.33;15.68;;;8.20;1.00;;;;;;5037337;28;20046;-64
2024/01/07 10:52:29;;;;;;;18.25;16.08;;;8.20;1.00;;;;;;5036945;28;20042;-64
2024/01/07 10:55:02;;;;;;;13.80;12.80;;;8.20;1.00;;;;;;5037688;28;20849;-64
2024/01/07 10:57:36;;;;;;;14.15;12.90;;;8.20;1.00;;;;;;5035712;28;20064;-63
2024/01/07 11:00:08;;;;;;;15.07;13.68;;;8.20;1.00;;;;;;5043574;28;20055;-65
2024/01/07 11:02:49;;;;;;;14.77;13.60;;;8.20;1.00;;;;;;5041172;28;20057;-64
2024/01/07 11:05:23;;;;;;;13.85;12.60;;;8.20;1.00;;;;;;5044533;28;20611;-64
2024/01/07 11:08:12;;;;;;;13.88;12.80;;;8.20;1.00;;;;;;5037480;28;20037;-65
2024/01/07 11:10:46;;;;;;;16.30;14.68;;;8.10;1.00;;;;;;5035431;28;20394;-64
2024/01/07 11:13:32;;;;;;;17.33;15.88;;;8.10;1.00;;;;;;5037961;28;20033;-63
2024/01/07 11:15:58;;;;;;;15.43;13.70;;;8.00;1.00;;;;;;5043196;28;20752;-63
2024/01/07 11:18:29;;;;;;;15.85;14.50;;;8.10;1.00;;;;;;5021800;28;20050;-63
2024/01/07 11:20:59;;;;;;;14.93;13.52;;;8.30;1.00;;;;;;5037798;28;20080;-63
2024/01/07 11:23:37;;;;;;;16.48;15.07;;;8.40;1.00;;;;;;5031302;28;20067;-64
2024/01/07 11:26:03;;;;;;;15.20;13.90;;;8.50;1.00;;;;;;5037820;28;20080;-64
2024/01/07 11:28:45;;;;;;;16.70;15.10;;;8.50;1.00;;;;;;5033690;28;20126;-64
2024/01/07 11:31:15;;;;;;;15.57;14.38;;;8.60;1.00;;;;;;5035304;28;20127;-63
2024/01/07 11:33:46;;;;;;;15.82;14.48;;;8.60;1.00;;;;;;5035458;28;20072;-64
2024/01/07 11:36:16;;;;;;;12.68;11.57;;;8.60;1.00;;;;;;5041020;28;20039;-64
2024/01/07 11:38:49;;;;;;;14.40;13.20;;;8.60;1.00;;;;;;5036726;28;20096;-64
2024/01/07 11:41:17;;;;;;;14.23;13.02;;;8.60;1.00;;;;;;5033972;28;20044;-63
2024/01/07 11:43:54;;;;;;;15.77;14.25;;;8.60;1.00;;;;;;5039169;28;20067;-65
2024/01/07 11:46:20;;;;;;;15.07;13.85;;;8.60;1.00;;;;;;5042244;28;20052;-63
2024/01/07 11:48:46;;;;;;;12.15;11.15;;;8.60;1.00;;;;;;5035848;28;20115;-63
2024/01/07 11:51:11;;;;;;;14.18;12.65;;;8.60;1.00;;;;;;5038653;28;20037;-63
2024/01/07 11:53:37;;;;;;;12.73;11.80;;;8.50;1.00;;;;;;5039875;28;20495;-64
2024/01/07 11:56:04;;;;;;;12.73;11.63;;;8.60;1.00;;;;;;5018111;28;20085;-66
2024/01/07 11:58:30;;;;;;;12.60;11.27;;;8.60;1.00;;;;;;5041022;28;20043;-64
2024/01/07 12:00:55;;;;;;;11.15;10.05;;;8.60;1.00;;;;;;5038662;28;20060;-64
2024/01/07 12:03:23;;;;;;;10.50;9.60;;;8.60;1.00;;;;;;5036349;28;20130;-62
2024/01/07 12:05:49;;;;;;;11.65;10.73;;;8.60;1.00;;;;;;5037303;28;20040;-64
2024/01/07 12:08:15;;;;;;;13.25;12.15;;;8.60;1.00;;;;;;5035143;28;20051;-65
2024/01/07 12:10:41;;;;;;;11.63;10.68;;;8.60;1.00;;;;;;5037446;28;20049;-65
2024/01/07 12:13:08;;;;;;;11.15;10.13;;;8.70;1.00;;;;;;5033225;28;20482;-65
2024/01/07 12:15:34;;;;;;;10.32;9.15;;;8.70;1.00;;;;;;5034123;28;20041;-65
2024/01/07 12:18:01;;;;;;;10.10;9.30;;;8.70;1.00;;;;;;5035817;28;20376;-64
2024/01/07 12:20:27;;;;;;;10.13;8.90;;;8.60;1.00;;;;;;5033745;28;20179;-64
2024/01/07 12:22:57;;;;;;;10.60;9.70;;;8.60;1.00;;;;;;5036716;28;20398;-64
2024/01/07 12:25:23;;;;;;;13.18;10.60;;;8.60;1.00;;;;;;5034002;28;20048;-64
2024/01/07 12:27:52;;;;;;;9.95;8.40;;;8.60;1.00;;;;;;5037294;28;20044;-63
2024/01/07 12:30:23;;;;;;;11.38;10.27;;;8.50;1.00;;;;;;5014991;28;20168;-65
2024/01/07 12:32:52;;;;;;;13.30;12.02;;;8.60;1.00;;;;;;5037281;28;20103;-64
2024/01/07 12:35:17;;;;;;;11.75;10.65;;;8.60;1.00;;;;;;5033448;28;20132;-64
2024/01/07 12:37:44;;;;;;;11.63;10.70;;;8.60;1.00;;;;;;5042696;28;20456;-63
2024/01/07 12:40:11;;;;;;;10.77;9.25;;;8.60;1.00;;;;;;5056828;28;20057;-66